sensor_id;sensor_type;location;lat;lon;timestamp;pressure;altitude;pressure_sealevel;temperature;humidity
6680;BME280;3376;42.664;23.346;2023-01-29T00:01:28;94611.41;;;1.23;100.00
6680;BME280;3376;42.664;23.346;2023-01-29T00:03:55;94615.34;;;1.28;100.00
6680;BME280;3376;42.664;23.346;2023-01-29T00:06:22;94617.00;;;1.29;100.00
6680;BME280;3376;42.664;23.346;2023-01-29T00:08:49;94617.66;;;1.42;100.00
6680;BME280;3376;42.664;23.346;2023-01-29T00:11:16;94619.50;;;1.40;100.00
6680;BME280;3376;42.664;23.346;2023-01-29T00:13:42;94623.09;;;1.48;100.00
6680;BME280;3376;42.664;23.346;2023-01-29T00:16:09;94619.50;;;1.51;100.00
6680;BME280;3376;42.664;23.346;2023-01-29T00:18:39;94625.84;;;1.56;100.00
6680;BME280;3376;42.664;23.346;2023-01-29T00:21:08;94622.72;;;1.53;100.00
6680;BME280;3376;42.664;23.346;2023-01-29T00:23:34;94622.84;;;1.51;100.00
6680;BME280;3376;42.664;23.346;2023-01-29T00:26:01;94638.41;;;1.48;100.00
6680;BME280;3376;42.664;23.346;2023-01-29T00:28:28;94602.59;;;1.39;100.00
6680;BME280;3376;42.664;23.346;2023-01-29T00:30:55;94638.03;;;1.64;100.00
6680;BME280;3376;42.664;23.346;2023-01-29T00:33:21;94634.19;;;1.69;100.00
6680;BME280;3376;42.664;23.346;2023-01-29T00:35:49;94639.63;;;1.76;100.00
6680;BME280;3376;42.664;23.346;2023-01-29T00:38:16;94634.53;;;1.76;100.00
6680;BME280;3376;42.664;23.346;2023-01-29T00:40:43;94628.03;;;1.72;100.00
6680;BME280;3376;42.664;23.346;2023-01-29T00:43:27;94634.31;;;1.68;100.00
6680;BME280;3376;42.664;23.346;2023-01-29T00:46:11;94615.31;;;1.61;100.00
6680;BME280;3376;42.664;23.346;2023-01-29T00:48:37;94633.41;;;1.58;100.00
6680;BME280;3376;42.664;23.346;2023-01-29T00:51:06;94625.63;;;1.48;100.00
6680;BME280;3376;42.664;23.346;2023-01-29T00:53:32;94637.56;;;1.59;100.00
6680;BME280;3376;42.664;23.346;2023-01-29T00:55:59;94638.72;;;1.55;100.00
6680;BME280;3376;42.664;23.346;2023-01-29T00:58:26;94633.41;;;1.58;100.00
6680;BME280;3376;42.664;23.346;2023-01-29T01:00:59;94601.56;;;1.19;100.00
6680;BME280;3376;42.664;23.346;2023-01-29T01:03:26;94634.81;;;1.40;100.00
6680;BME280;3376;42.664;23.346;2023-01-29T01:06:02;94623.34;;;1.34;100.00
6680;BME280;3376;42.664;23.346;2023-01-29T01:08:30;94629.00;;;1.38;100.00
6680;BME280;3376;42.664;23.346;2023-01-29T01:11:14;94631.00;;;1.45;100.00
6680;BME280;3376;42.664;23.346;2023-01-29T01:13:41;94621.34;;;1.49;100.00
6680;BME280;3376;42.664;23.346;2023-01-29T01:16:09;94634.81;;;1.51;100.00
6680;BME280;3376;42.664;23.346;2023-01-29T01:18:35;94496.94;;;0.43;100.00
6680;BME280;3376;42.664;23.346;2023-01-29T01:21:03;94631.00;;;1.34;100.00
6680;BME280;3376;42.664;23.346;2023-01-29T01:23:31;94630.78;;;1.26;100.00
6680;BME280;3376;42.664;23.346;2023-01-29T01:25:59;94604.94;;;0.97;100.00
6680;BME280;3376;42.664;23.346;2023-01-29T01:28:26;94623.47;;;1.10;100.00
6680;BME280;3376;42.664;23.346;2023-01-29T01:30:53;94627.88;;;1.08;100.00
6680;BME280;3376;42.664;23.346;2023-01-29T01:33:20;94627.63;;;1.11;100.00
6680;BME280;3376;42.664;23.346;2023-01-29T01:35:46;94630.19;;;1.11;100.00
6680;BME280;3376;42.664;23.346;2023-01-29T01:38:13;94618.63;;;1.07;100.00
6680;BME280;3376;42.664;23.346;2023-01-29T01:40:44;94625.19;;;1.10;100.00
6680;BME280;3376;42.664;23.346;2023-01-29T01:43:11;94629.03;;;1.15;100.00
6680;BME280;3376;42.664;23.346;2023-01-29T01:45:38;94622.41;;;1.24;100.00
6680;BME280;3376;42.664;23.346;2023-01-29T01:48:09;94629.16;;;1.25;100.00
6680;BME280;3376;42.664;23.346;2023-01-29T01:50:42;94639.47;;;1.23;100.00
6680;BME280;3376;42.664;23.346;2023-01-29T01:53:12;94632.63;;;1.24;100.00
6680;BME280;3376;42.664;23.346;2023-01-29T01:55:42;94632.28;;;1.17;100.00
6680;BME280;3376;42.664;23.346;2023-01-29T01:58:16;94637.06;;;1.11;100.00
6680;BME280;3376;42.664;23.346;2023-01-29T02:00:44;94643.28;;;1.07;100.00
6680;BME280;3376;42.664;23.346;2023-01-29T02:03:11;94631.13;;;1.10;100.00
6680;BME280;3376;42.664;23.346;2023-01-29T02:05:57;94651.75;;;1.30;100.00
6680;BME280;3376;42.664;23.346;2023-01-29T02:08:46;94638.09;;;1.19;100.00
6680;BME280;3376;42.664;23.346;2023-01-29T02:11:32;94639.00;;;1.18;100.00
6680;BME280;3376;42.664;23.346;2023-01-29T02:14:01;94644.09;;;1.18;100.00
6680;BME280;3376;42.664;23.346;2023-01-29T02:16:28;94643.97;;;1.20;100.00
6680;BME280;3376;42.664;23.346;2023-01-29T02:18:55;94597.28;;;0.86;100.00
6680;BME280;3376;42.664;23.346;2023-01-29T02:21:41;94645.97;;;1.05;100.00
6680;BME280;3376;42.664;23.346;2023-01-29T02:24:32;94649.78;;;1.00;100.00
6680;BME280;3376;42.664;23.346;2023-01-29T02:27:07;94636.34;;;0.98;100.00
6680;BME280;3376;42.664;23.346;2023-01-29T02:29:44;94651.19;;;1.04;100.00
6680;BME280;3376;42.664;23.346;2023-01-29T02:32:21;94657.34;;;1.12;100.00
6680;BME280;3376;42.664;23.346;2023-01-29T02:35:01;94662.44;;;1.12;100.00
6680;BME280;3376;42.664;23.346;2023-01-29T02:37:54;94659.41;;;1.07;100.00
6680;BME280;3376;42.664;23.346;2023-01-29T02:40:28;94634.63;;;0.87;100.00
6680;BME280;3376;42.664;23.346;2023-01-29T02:43:03;94661.16;;;0.96;100.00
6680;BME280;3376;42.664;23.346;2023-01-29T02:45:38;94658.97;;;1.02;100.00
6680;BME280;3376;42.664;23.346;2023-01-29T02:48:11;94639.25;;;0.93;100.00
6680;BME280;3376;42.664;23.346;2023-01-29T02:50:44;94678.31;;;1.05;100.00
6680;BME280;3376;42.664;23.346;2023-01-29T02:53:16;94669.16;;;1.02;100.00
6680;BME280;3376;42.664;23.346;2023-01-29T02:55:47;94671.91;;;0.99;100.00
6680;BME280;3376;42.664;23.346;2023-01-29T02:58:21;94654.44;;;1.06;100.00
6680;BME280;3376;42.664;23.346;2023-01-29T03:00:54;94665.91;;;1.00;100.00
6680;BME280;3376;42.664;23.346;2023-01-29T03:03:27;94667.28;;;0.93;100.00
6680;BME280;3376;42.664;23.346;2023-01-29T03:06:00;94665.75;;;0.80;100.00
6680;BME280;3376;42.664;23.346;2023-01-29T03:08:32;94667.75;;;0.87;100.00
6680;BME280;3376;42.664;23.346;2023-01-29T03:11:11;94629.03;;;0.71;100.00
6680;BME280;3376;42.664;23.346;2023-01-29T03:13:44;94666.97;;;1.09;100.00
6680;BME280;3376;42.664;23.346;2023-01-29T03:16:20;94671.69;;;1.13;100.00
6680;BME280;3376;42.664;23.346;2023-01-29T03:18:53;94671.84;;;1.01;100.00
6680;BME280;3376;42.664;23.346;2023-01-29T03:21:26;94672.84;;;0.98;100.00
6680;BME280;3376;42.664;23.346;2023-01-29T03:24:13;94673.78;;;0.97;100.00
6680;BME280;3376;42.664;23.346;2023-01-29T03:27:01;94680.28;;;1.01;100.00
6680;BME280;3376;42.664;23.346;2023-01-29T03:29:47;94680.97;;;1.03;100.00
6680;BME280;3376;42.664;23.346;2023-01-29T03:32:35;94674.38;;;1.01;100.00
6680;BME280;3376;42.664;23.346;2023-01-29T03:35:04;94674.97;;;1.04;100.00
6680;BME280;3376;42.664;23.346;2023-01-29T03:37:35;94680.75;;;1.06;100.00
6680;BME280;3376;42.664;23.346;2023-01-29T03:40:06;94672.63;;;1.01;100.00
6680;BME280;3376;42.664;23.346;2023-01-29T03:42:43;94676.00;;;1.13;100.00
6680;BME280;3376;42.664;23.346;2023-01-29T03:45:16;94672.06;;;1.09;100.00
6680;BME280;3376;42.664;23.346;2023-01-29T03:47:53;94668.56;;;1.10;100.00
6680;BME280;3376;42.664;23.346;2023-01-29T03:50:33;94674.50;;;1.10;100.00
6680;BME280;3376;42.664;23.346;2023-01-29T03:53:07;94660.56;;;1.03;100.00
6680;BME280;3376;42.664;23.346;2023-01-29T03:55:40;94677.75;;;1.12;100.00
6680;BME280;3376;42.664;23.346;2023-01-29T03:58:18;94674.72;;;1.07;100.00
6680;BME280;3376;42.664;23.346;2023-01-29T04:00:51;94672.41;;;1.04;100.00
6680;BME280;3376;42.664;23.346;2023-01-29T04:03:27;94673.31;;;0.92;100.00
6680;BME280;3376;42.664;23.346;2023-01-29T04:06:00;94671.84;;;1.01;100.00
6680;BME280;3376;42.664;23.346;2023-01-29T04:08:37;94681.44;;;0.97;100.00
6680;BME280;3376;42.664;23.346;2023-01-29T04:11:11;94648.75;;;0.80;100.00
6680;BME280;3376;42.664;23.346;2023-01-29T04:13:39;94678.66;;;1.00;100.00
6680;BME280;3376;42.664;23.346;2023-01-29T04:16:10;94689.31;;;1.05;100.00
6680;BME280;3376;42.664;23.346;2023-01-29T04:18:40;94677.00;;;0.99;100.00
6680;BME280;3376;42.664;23.346;2023-01-29T04:21:10;94688.97;;;1.10;100.00
6680;BME280;3376;42.664;23.346;2023-01-29T04:23:36;94687.34;;;0.98;100.00
6680;BME280;3376;42.664;23.346;2023-01-29T04:26:17;94680.16;;;1.03;100.00
6680;BME280;3376;42.664;23.346;2023-01-29T04:28:56;94684.31;;;0.93;100.00
6680;BME280;3376;42.664;23.346;2023-01-29T04:31:27;94691.41;;;1.00;100.00
6680;BME280;3376;42.664;23.346;2023-01-29T04:34:09;94685.84;;;1.06;100.00
6680;BME280;3376;42.664;23.346;2023-01-29T04:36:45;94693.03;;;1.01;100.00
6680;BME280;3376;42.664;23.346;2023-01-29T04:39:19;94691.75;;;0.96;100.00
6680;BME280;3376;42.664;23.346;2023-01-29T04:41:51;94652.88;;;0.70;100.00
6680;BME280;3376;42.664;23.346;2023-01-29T04:44:22;94647.56;;;0.73;100.00
6680;BME280;3376;42.664;23.346;2023-01-29T04:46:57;94693.41;;;1.08;100.00
6680;BME280;3376;42.664;23.346;2023-01-29T04:49:33;94696.84;;;1.07;100.00
6680;BME280;3376;42.664;23.346;2023-01-29T04:52:08;94692.09;;;1.13;100.00
6680;BME280;3376;42.664;23.346;2023-01-29T04:54:49;94698.50;;;1.08;100.00
6680;BME280;3376;42.664;23.346;2023-01-29T04:57:23;94687.22;;;0.99;100.00
6680;BME280;3376;42.664;23.346;2023-01-29T04:59:56;94694.19;;;1.08;100.00
6680;BME280;3376;42.664;23.346;2023-01-29T05:02:26;94670.78;;;0.92;100.00
6680;BME280;3376;42.664;23.346;2023-01-29T05:04:55;94689.53;;;0.91;100.00
6680;BME280;3376;42.664;23.346;2023-01-29T05:07:25;94701.38;;;1.03;100.00
6680;BME280;3376;42.664;23.346;2023-01-29T05:09:55;94694.44;;;1.05;100.00
6680;BME280;3376;42.664;23.346;2023-01-29T05:12:24;94703.94;;;1.03;100.00
6680;BME280;3376;42.664;23.346;2023-01-29T05:14:52;94702.63;;;0.98;100.00
6680;BME280;3376;42.664;23.346;2023-01-29T05:17:21;94708.31;;;1.01;100.00
6680;BME280;3376;42.664;23.346;2023-01-29T05:19:49;94708.56;;;0.98;100.00
6680;BME280;3376;42.664;23.346;2023-01-29T05:22:18;94709.81;;;0.93;100.00
6680;BME280;3376;42.664;23.346;2023-01-29T05:24:47;94705.53;;;0.93;100.00
6680;BME280;3376;42.664;23.346;2023-01-29T05:27:17;94707.63;;;0.99;100.00
6680;BME280;3376;42.664;23.346;2023-01-29T05:30:02;94699.97;;;0.99;100.00
6680;BME280;3376;42.664;23.346;2023-01-29T05:32:29;94714.00;;;1.05;100.00
6680;BME280;3376;42.664;23.346;2023-01-29T05:34:55;94721.78;;;1.03;100.00
6680;BME280;3376;42.664;23.346;2023-01-29T05:37:23;94719.69;;;1.08;100.00
6680;BME280;3376;42.664;23.346;2023-01-29T05:39:50;94725.03;;;1.05;100.00
6680;BME280;3376;42.664;23.346;2023-01-29T05:42:17;94730.72;;;1.09;100.00
6680;BME280;3376;42.664;23.346;2023-01-29T05:44:44;94722.00;;;1.11;100.00
6680;BME280;3376;42.664;23.346;2023-01-29T05:47:10;94727.81;;;1.13;100.00
6680;BME280;3376;42.664;23.346;2023-01-29T05:49:37;94721.78;;;1.03;100.00
6680;BME280;3376;42.664;23.346;2023-01-29T05:52:04;94713.69;;;1.09;100.00
6680;BME280;3376;42.664;23.346;2023-01-29T05:54:32;94731.66;;;1.08;100.00
6680;BME280;3376;42.664;23.346;2023-01-29T05:56:59;94734.41;;;1.05;100.00
6680;BME280;3376;42.664;23.346;2023-01-29T05:59:25;94710.72;;;0.81;100.00
6680;BME280;3376;42.664;23.346;2023-01-29T06:01:52;94724.91;;;0.96;100.00
6680;BME280;3376;42.664;23.346;2023-01-29T06:04:19;94725.84;;;1.06;100.00
6680;BME280;3376;42.664;23.346;2023-01-29T06:09:32;94744.03;;;1.01;100.00
6680;BME280;3376;42.664;23.346;2023-01-29T06:11:59;94747.88;;;1.07;100.00
6680;BME280;3376;42.664;23.346;2023-01-29T06:14:25;94742.41;;;1.11;100.00
6680;BME280;3376;42.664;23.346;2023-01-29T06:16:52;94743.34;;;1.10;100.00
6680;BME280;3376;42.664;23.346;2023-01-29T06:19:19;94756.13;;;1.22;100.00
6680;BME280;3376;42.664;23.346;2023-01-29T06:21:46;94757.63;;;1.24;100.00
6680;BME280;3376;42.664;23.346;2023-01-29T06:24:13;94769.81;;;1.20;100.00
6680;BME280;3376;42.664;23.346;2023-01-29T06:26:41;94769.81;;;1.20;100.00
6680;BME280;3376;42.664;23.346;2023-01-29T06:29:07;94776.75;;;1.18;100.00
6680;BME280;3376;42.664;23.346;2023-01-29T06:31:34;94775.38;;;1.14;100.00
6680;BME280;3376;42.664;23.346;2023-01-29T06:34:01;94770.00;;;1.06;100.00
6680;BME280;3376;42.664;23.346;2023-01-29T06:36:29;94767.22;;;0.98;100.00
6680;BME280;3376;42.664;23.346;2023-01-29T06:38:55;94774.19;;;1.07;100.00
6680;BME280;3376;42.664;23.346;2023-01-29T06:41:22;94778.13;;;1.11;100.00
6680;BME280;3376;42.664;23.346;2023-01-29T06:43:51;94756.06;;;0.99;100.00
6680;BME280;3376;42.664;23.346;2023-01-29T06:46:18;94778.72;;;1.15;100.00
6680;BME280;3376;42.664;23.346;2023-01-29T06:48:44;94781.41;;;1.25;100.00
6680;BME280;3376;42.664;23.346;2023-01-29T06:51:11;94789.97;;;1.23;100.00
6680;BME280;3376;42.664;23.346;2023-01-29T06:53:38;94789.53;;;1.30;100.00
6680;BME280;3376;42.664;23.346;2023-01-29T06:56:06;94758.66;;;1.10;100.00
6680;BME280;3376;42.664;23.346;2023-01-29T06:58:35;94790.94;;;1.34;100.00
6680;BME280;3376;42.664;23.346;2023-01-29T07:01:04;94794.19;;;1.36;100.00
6680;BME280;3376;42.664;23.346;2023-01-29T07:03:32;94794.78;;;1.50;100.00
6680;BME280;3376;42.664;23.346;2023-01-29T07:05:58;94788.88;;;1.50;100.00
6680;BME280;3376;42.664;23.346;2023-01-29T07:08:25;94799.88;;;1.61;100.00
6680;BME280;3376;42.664;23.346;2023-01-29T07:10:52;94784.09;;;1.56;100.00
6680;BME280;3376;42.664;23.346;2023-01-29T07:13:23;94798.84;;;1.64;100.00
6680;BME280;3376;42.664;23.346;2023-01-29T07:15:50;94803.38;;;1.60;100.00
6680;BME280;3376;42.664;23.346;2023-01-29T07:18:18;94811.16;;;1.59;100.00
6680;BME280;3376;42.664;23.346;2023-01-29T07:20:45;94811.16;;;1.70;100.00
6680;BME280;3376;42.664;23.346;2023-01-29T07:23:12;94818.47;;;1.63;100.00
6680;BME280;3376;42.664;23.346;2023-01-29T07:25:40;94813.38;;;1.52;100.00
6680;BME280;3376;42.664;23.346;2023-01-29T07:28:07;94819.53;;;1.61;100.00
6680;BME280;3376;42.664;23.346;2023-01-29T07:30:33;94813.81;;;1.57;100.00
6680;BME280;3376;42.664;23.346;2023-01-29T07:33:01;94798.03;;;1.63;100.00
6680;BME280;3376;42.664;23.346;2023-01-29T07:35:30;94820.34;;;1.72;100.00
6680;BME280;3376;42.664;23.346;2023-01-29T07:37:57;94824.41;;;1.86;100.00
6680;BME280;3376;42.664;23.346;2023-01-29T07:40:23;94823.09;;;1.80;100.00
6680;BME280;3376;42.664;23.346;2023-01-29T07:42:50;94824.72;;;1.70;100.00
6680;BME280;3376;42.664;23.346;2023-01-29T07:45:17;94822.91;;;1.83;100.00
6680;BME280;3376;42.664;23.346;2023-01-29T07:47:43;94815.34;;;1.93;100.00
6680;BME280;3376;42.664;23.346;2023-01-29T07:50:10;94829.72;;;1.94;100.00
6680;BME280;3376;42.664;23.346;2023-01-29T07:52:38;94808.63;;;1.81;100.00
6680;BME280;3376;42.664;23.346;2023-01-29T07:55:06;94836.13;;;1.99;100.00
6680;BME280;3376;42.664;23.346;2023-01-29T07:57:32;94835.78;;;1.93;100.00
6680;BME280;3376;42.664;23.346;2023-01-29T07:59:59;94838.66;;;1.77;100.00
6680;BME280;3376;42.664;23.346;2023-01-29T08:02:26;94841.22;;;1.77;100.00
6680;BME280;3376;42.664;23.346;2023-01-29T08:04:53;94820.53;;;1.58;100.00
6680;BME280;3376;42.664;23.346;2023-01-29T08:07:19;94835.53;;;1.74;100.00
6680;BME280;3376;42.664;23.346;2023-01-29T08:09:47;94834.47;;;1.65;100.00
6680;BME280;3376;42.664;23.346;2023-01-29T08:12:14;94834.72;;;1.62;100.00
6680;BME280;3376;42.664;23.346;2023-01-29T08:14:41;94837.38;;;1.72;100.00
6680;BME280;3376;42.664;23.346;2023-01-29T08:17:10;94838.56;;;1.79;100.00
6680;BME280;3376;42.664;23.346;2023-01-29T08:19:36;94843.66;;;1.79;100.00
6680;BME280;3376;42.664;23.346;2023-01-29T08:22:04;94774.47;;;1.27;100.00
6680;BME280;3376;42.664;23.346;2023-01-29T08:24:31;94845.03;;;1.61;100.00
6680;BME280;3376;42.664;23.346;2023-01-29T08:26:59;94847.59;;;1.61;100.00
6680;BME280;3376;42.664;23.346;2023-01-29T08:29:25;94824.13;;;1.45;100.00
6680;BME280;3376;42.664;23.346;2023-01-29T08:31:52;94850.75;;;1.64;100.00
6680;BME280;3376;42.664;23.346;2023-01-29T08:34:19;94862.91;;;1.72;100.00
6680;BME280;3376;42.664;23.346;2023-01-29T08:36:45;94848.31;;;1.74;100.00
6680;BME280;3376;42.664;23.346;2023-01-29T08:39:12;94851.69;;;1.74;100.00
6680;BME280;3376;42.664;23.346;2023-01-29T08:41:39;94860.16;;;1.86;100.00
6680;BME280;3376;42.664;23.346;2023-01-29T08:44:07;94864.81;;;2.03;100.00
6680;BME280;3376;42.664;23.346;2023-01-29T08:46:34;94865.16;;;1.98;100.00
6680;BME280;3376;42.664;23.346;2023-01-29T08:49:01;94858.53;;;2.07;100.00
6680;BME280;3376;42.664;23.346;2023-01-29T08:51:28;94867.38;;;2.14;100.00
6680;BME280;3376;42.664;23.346;2023-01-29T08:53:55;94867.81;;;2.19;100.00
6680;BME280;3376;42.664;23.346;2023-01-29T08:56:21;94875.25;;;2.22;100.00
6680;BME280;3376;42.664;23.346;2023-01-29T08:58:48;94882.69;;;2.14;100.00
6680;BME280;3376;42.664;23.346;2023-01-29T09:01:16;94888.03;;;2.00;100.00
6680;BME280;3376;42.664;23.346;2023-01-29T09:03:43;94886.75;;;1.83;100.00
6680;BME280;3376;42.664;23.346;2023-01-29T09:06:11;94718.47;;;0.79;100.00
6680;BME280;3376;42.664;23.346;2023-01-29T09:08:39;94885.25;;;1.92;100.00
6680;BME280;3376;42.664;23.346;2023-01-29T09:11:06;94882.09;;;1.99;100.00
6680;BME280;3376;42.664;23.346;2023-01-29T09:13:33;94889.44;;;2.04;100.00
6680;BME280;3376;42.664;23.346;2023-01-29T09:16:00;94883.16;;;1.97;100.00
6680;BME280;3376;42.664;23.346;2023-01-29T09:18:29;94876.53;;;1.83;100.00
6680;BME280;3376;42.664;23.346;2023-01-29T09:20:56;94884.06;;;1.85;100.00
6680;BME280;3376;42.664;23.346;2023-01-29T09:23:23;94877.22;;;1.85;100.00
6680;BME280;3376;42.664;23.346;2023-01-29T09:25:50;94869.59;;;2.07;100.00
6680;BME280;3376;42.664;23.346;2023-01-29T09:28:17;94878.28;;;2.16;100.00
6680;BME280;3376;42.664;23.346;2023-01-29T09:30:44;94879.91;;;2.17;100.00
6680;BME280;3376;42.664;23.346;2023-01-29T09:33:10;94884.09;;;2.29;100.00
6680;BME280;3376;42.664;23.346;2023-01-29T09:35:41;94867.47;;;2.23;100.00
6680;BME280;3376;42.664;23.346;2023-01-29T09:38:08;94880.25;;;2.23;100.00
6680;BME280;3376;42.664;23.346;2023-01-29T09:40:39;94862.47;;;2.11;100.00
6680;BME280;3376;42.664;23.346;2023-01-29T09:43:12;94854.81;;;2.11;100.00
6680;BME280;3376;42.664;23.346;2023-01-29T09:45:43;94854.69;;;2.23;100.00
6680;BME280;3376;42.664;23.346;2023-01-29T09:48:15;94868.19;;;2.36;100.00
6680;BME280;3376;42.664;23.346;2023-01-29T09:50:46;94857.38;;;2.33;100.00
6680;BME280;3376;42.664;23.346;2023-01-29T09:53:18;94858.41;;;2.19;100.00
6680;BME280;3376;42.664;23.346;2023-01-29T09:55:49;94855.63;;;2.11;100.00
6680;BME280;3376;42.664;23.346;2023-01-29T09:58:19;94864.56;;;2.06;100.00
6680;BME280;3376;42.664;23.346;2023-01-29T10:00:55;94852.03;;;2.03;100.00
6680;BME280;3376;42.664;23.346;2023-01-29T10:03:38;94841.56;;;2.06;100.00
6680;BME280;3376;42.664;23.346;2023-01-29T10:06:29;94860.16;;;2.19;100.00
6680;BME280;3376;42.664;23.346;2023-01-29T10:09:31;94860.88;;;2.21;100.00
6680;BME280;3376;42.664;23.346;2023-01-29T10:12:10;94855.97;;;2.18;100.00
6680;BME280;3376;42.664;23.346;2023-01-29T10:14:46;94855.41;;;2.03;100.00
6680;BME280;3376;42.664;23.346;2023-01-29T10:17:29;94849.72;;;2.00;100.00
6680;BME280;3376;42.664;23.346;2023-01-29T10:20:17;94847.41;;;1.97;100.00
6680;BME280;3376;42.664;23.346;2023-01-29T10:22:57;94845.06;;;2.16;100.00
6680;BME280;3376;42.664;23.346;2023-01-29T10:25:25;94839.59;;;2.20;100.00
6680;BME280;3376;42.664;23.346;2023-01-29T10:27:54;94841.53;;;2.28;100.00
6680;BME280;3376;42.664;23.346;2023-01-29T10:30:31;94837.38;;;2.38;100.00
6680;BME280;3376;42.664;23.346;2023-01-29T10:33:02;94828.78;;;2.28;100.00
6680;BME280;3376;42.664;23.346;2023-01-29T10:35:32;94839.69;;;2.30;100.00
6680;BME280;3376;42.664;23.346;2023-01-29T10:38:14;94834.69;;;2.39;100.00
6680;BME280;3376;42.664;23.346;2023-01-29T10:40:49;94830.63;;;2.37;100.00
6680;BME280;3376;42.664;23.346;2023-01-29T10:43:22;94790.22;;;2.20;100.00
6680;BME280;3376;42.664;23.346;2023-01-29T10:46:02;94834.81;;;2.38;100.00
6680;BME280;3376;42.664;23.346;2023-01-29T10:48:43;94821.34;;;2.36;100.00
6680;BME280;3376;42.664;23.346;2023-01-29T10:51:24;94831.31;;;2.28;100.00
6680;BME280;3376;42.664;23.346;2023-01-29T10:54:08;94825.78;;;2.12;100.00
6680;BME280;3376;42.664;23.346;2023-01-29T10:56:51;94834.03;;;2.04;100.00
6680;BME280;3376;42.664;23.346;2023-01-29T10:59:38;94817.66;;;1.96;100.00
6680;BME280;3376;42.664;23.346;2023-01-29T11:02:14;94806.41;;;1.87;100.00
6680;BME280;3376;42.664;23.346;2023-01-29T11:04:42;94800.16;;;1.69;100.00
6680;BME280;3376;42.664;23.346;2023-01-29T11:07:10;94806.63;;;1.62;100.00
6680;BME280;3376;42.664;23.346;2023-01-29T11:09:43;94813.50;;;1.73;100.00
6680;BME280;3376;42.664;23.346;2023-01-29T11:12:13;94798.03;;;1.63;100.00
6680;BME280;3376;42.664;23.346;2023-01-29T11:14:44;94819.03;;;1.67;100.00
6680;BME280;3376;42.664;23.346;2023-01-29T11:17:16;94812.09;;;1.69;100.00
6680;BME280;3376;42.664;23.346;2023-01-29T11:19:46;94813.16;;;1.66;100.00
6680;BME280;3376;42.664;23.346;2023-01-29T11:22:15;94809.75;;;1.77;100.00
6680;BME280;3376;42.664;23.346;2023-01-29T11:24:43;94802.44;;;1.94;100.00
6680;BME280;3376;42.664;23.346;2023-01-29T11:27:14;94750.13;;;1.67;100.00
6680;BME280;3376;42.664;23.346;2023-01-29T11:29:44;94798.84;;;2.08;100.00
6680;BME280;3376;42.664;23.346;2023-01-29T11:32:13;94801.50;;;2.17;100.00
6680;BME280;3376;42.664;23.346;2023-01-29T11:34:57;94763.31;;;2.05;100.00
6680;BME280;3376;42.664;23.346;2023-01-29T11:37:32;94799.28;;;2.24;100.00
6680;BME280;3376;42.664;23.346;2023-01-29T11:40:00;94790.34;;;2.29;100.00
6680;BME280;3376;42.664;23.346;2023-01-29T11:42:30;94788.38;;;2.33;100.00
6680;BME280;3376;42.664;23.346;2023-01-29T11:44:58;94781.81;;;2.40;100.00
6680;BME280;3376;42.664;23.346;2023-01-29T11:47:26;94781.41;;;2.56;100.00
6680;BME280;3376;42.664;23.346;2023-01-29T11:49:55;94772.97;;;2.55;100.00
6680;BME280;3376;42.664;23.346;2023-01-29T11:52:23;94770.34;;;2.66;100.00
6680;BME280;3376;42.664;23.346;2023-01-29T11:54:53;94778.00;;;2.77;100.00
6680;BME280;3376;42.664;23.346;2023-01-29T11:57:31;94774.41;;;2.69;100.00
6680;BME280;3376;42.664;23.346;2023-01-29T12:00:01;94774.09;;;2.62;100.00
6680;BME280;3376;42.664;23.346;2023-01-29T12:02:32;94771.47;;;2.73;100.00
6680;BME280;3376;42.664;23.346;2023-01-29T12:05:04;94748.03;;;2.68;100.00
6680;BME280;3376;42.664;23.346;2023-01-29T12:07:32;94774.00;;;2.84;100.00
6680;BME280;3376;42.664;23.346;2023-01-29T12:10:00;94772.06;;;2.97;100.00
6680;BME280;3376;42.664;23.346;2023-01-29T12:12:36;94768.13;;;2.93;100.00
6680;BME280;3376;42.664;23.346;2023-01-29T12:15:18;94699.41;;;2.48;100.00
6680;BME280;3376;42.664;23.346;2023-01-29T12:17:52;94745.34;;;2.70;100.00
6680;BME280;3376;42.664;23.346;2023-01-29T12:20:26;94767.38;;;2.82;100.00
6680;BME280;3376;42.664;23.346;2023-01-29T12:23:02;94769.81;;;2.83;100.00
6680;BME280;3376;42.664;23.346;2023-01-29T12:25:42;94764.50;;;2.75;100.00
6680;BME280;3376;42.664;23.346;2023-01-29T12:28:21;94779.16;;;2.73;100.00
6680;BME280;3376;42.664;23.346;2023-01-29T12:30:54;94757.69;;;2.65;100.00
6680;BME280;3376;42.664;23.346;2023-01-29T12:33:36;94731.47;;;2.52;100.00
6680;BME280;3376;42.664;23.346;2023-01-29T12:36:10;94769.44;;;2.67;100.00
6680;BME280;3376;42.664;23.346;2023-01-29T12:38:39;94759.41;;;2.75;100.00
6680;BME280;3376;42.664;23.346;2023-01-29T12:41:12;94759.41;;;2.96;100.00
6680;BME280;3376;42.664;23.346;2023-01-29T12:43:51;94762.03;;;3.05;100.00
6680;BME280;3376;42.664;23.346;2023-01-29T12:46:22;94760.22;;;2.96;100.00
6680;BME280;3376;42.664;23.346;2023-01-29T12:48:52;94769.47;;;3.08;100.00
6680;BME280;3376;42.664;23.346;2023-01-29T12:51:23;94775.31;;;2.99;100.00
6680;BME280;3376;42.664;23.346;2023-01-29T12:53:55;94774.94;;;2.83;100.00
6680;BME280;3376;42.664;23.346;2023-01-29T12:56:29;94769.22;;;2.91;100.00
6680;BME280;3376;42.664;23.346;2023-01-29T12:59:01;94742.16;;;2.57;100.00
6680;BME280;3376;42.664;23.346;2023-01-29T13:01:33;94756.78;;;2.55;100.00
6680;BME280;3376;42.664;23.346;2023-01-29T13:04:04;94775.47;;;2.66;100.00
6680;BME280;3376;42.664;23.346;2023-01-29T13:06:35;94763.88;;;2.62;100.00
6680;BME280;3376;42.664;23.346;2023-01-29T13:09:11;94762.91;;;2.74;100.00
6680;BME280;3376;42.664;23.346;2023-01-29T13:11:42;94757.69;;;2.65;100.00
6680;BME280;3376;42.664;23.346;2023-01-29T13:14:18;94762.78;;;2.76;100.00
6680;BME280;3376;42.664;23.346;2023-01-29T13:16:51;94755.88;;;2.76;100.00
6680;BME280;3376;42.664;23.346;2023-01-29T13:19:23;94764.81;;;2.82;100.00
6680;BME280;3376;42.664;23.346;2023-01-29T13:21:53;94760.28;;;2.85;100.00
6680;BME280;3376;42.664;23.346;2023-01-29T13:24:23;94752.41;;;2.77;100.00
6680;BME280;3376;42.664;23.346;2023-01-29T13:26:51;94763.28;;;2.90;100.00
6680;BME280;3376;42.664;23.346;2023-01-29T13:29:24;94738.53;;;2.59;100.00
6680;BME280;3376;42.664;23.346;2023-01-29T13:31:53;94767.50;;;2.80;100.00
6680;BME280;3376;42.664;23.346;2023-01-29T13:34:22;94745.97;;;2.62;100.00